createdAt,value
2023-03-29T00:00:14.564Z,77397.94
2023-03-29T00:01:34.965Z,77395.94
2023-03-29T00:02:38.189Z,77389.91
2023-03-29T00:03:42.537Z,77391.91
2023-03-29T00:04:46.234Z,77385.88
2023-03-29T00:05:49.138Z,77387.88
2023-03-29T00:06:52.168Z,77383.88
2023-03-29T00:07:54.516Z,77387.88
2023-03-29T00:08:56.652Z,77389.91
2023-03-29T00:09:58.735Z,77391.91
2023-03-29T00:11:01.155Z,77399.97
2023-03-29T00:12:04.372Z,77387.88
2023-03-29T00:13:06.311Z,77385.88
2023-03-29T00:14:08.293Z,77379.84
2023-03-29T00:15:10.397Z,77377.84
2023-03-29T00:16:13.366Z,77373.81
2023-03-29T00:17:15.609Z,77377.84
2023-03-29T00:18:17.548Z,77383.88
2023-03-29T00:19:19.138Z,77385.88
2023-03-29T00:20:20.746Z,77391.91
2023-03-29T00:21:22.413Z,77385.88
2023-03-29T00:22:24.480Z,77387.88
2023-03-29T00:23:27.688Z,77391.91
2023-03-29T00:24:29.773Z,77385.88
2023-03-29T00:25:31.808Z,77383.88
2023-03-29T00:26:34.681Z,77389.91
2023-03-29T00:27:37.792Z,77383.88
2023-03-29T00:28:41.117Z,77381.84
2023-03-29T00:29:42.686Z,77383.88
2023-03-29T00:30:47.324Z,77381.84
2023-03-29T00:31:53.840Z,77375.81
2023-03-29T00:32:56.274Z,77371.81
2023-03-29T00:33:59.276Z,77371.81
2023-03-29T00:35:01.144Z,77369.78
2023-03-29T00:36:04.878Z,77357.72
2023-03-29T00:37:08.978Z,77355.72
2023-03-29T00:38:10.972Z,77349.69
2023-03-29T00:39:13.086Z,77357.72
2023-03-29T00:40:15.866Z,77347.66
2023-03-29T00:41:17.805Z,77353.69
2023-03-29T00:42:20.561Z,77347.66
2023-03-29T00:43:23.304Z,77337.63
2023-03-29T00:45:06.049Z,77341.63
2023-03-29T00:46:10.155Z,77339.63
2023-03-29T00:47:11.959Z,77337.63
2023-03-29T00:48:21.941Z,77335.59
2023-03-29T00:49:23.930Z,77331.56
2023-03-29T00:50:32.573Z,77325.53
2023-03-29T00:51:38.121Z,77327.56
2023-03-29T00:52:42.085Z,77323.53
2023-03-29T00:54:09.724Z,77321.53
2023-03-29T00:55:17.765Z,77321.53
2023-03-29T00:56:27.730Z,77311.47
2023-03-29T00:57:32.535Z,77309.47
2023-03-29T00:58:40.467Z,77311.47
2023-03-29T00:59:45.521Z,77299.41
2023-03-29T01:00:58.050Z,77285.31
2023-03-29T01:02:07.258Z,77279.28
2023-03-29T01:03:25.064Z,77281.31
2023-03-29T01:04:36.776Z,77275.28
2023-03-29T01:05:44.294Z,77273.25
2023-03-29T01:07:28.653Z,77271.25
2023-03-29T01:08:42.098Z,77259.19
2023-03-29T01:09:49.963Z,77265.22
2023-03-29T01:11:16.903Z,77261.19
2023-03-29T01:12:28.652Z,77273.25
2023-03-29T01:14:04.566Z,77259.19
2023-03-29T01:15:12.217Z,77253.16
2023-03-29T01:16:14.775Z,77259.19
2023-03-29T01:17:16.967Z,77247.13
2023-03-29T01:18:22.155Z,77255.16
2023-03-29T01:19:30.883Z,77245.09
2023-03-29T01:21:03.049Z,77245.09
2023-03-29T01:22:38.881Z,77243.09
2023-03-29T01:24:08.632Z,77245.09
2023-03-29T01:25:37.358Z,77239.06
2023-03-29T01:27:07.958Z,77237.06
2023-03-29T01:28:37.921Z,77253.16
2023-03-29T01:29:57.684Z,77249.13
2023-03-29T01:31:18.911Z,77257.16
2023-03-29T01:32:38.832Z,77259.19
2023-03-29T01:34:25.876Z,77267.22
2023-03-29T01:35:44.974Z,77265.22
2023-03-29T01:37:11.529Z,77269.25
2023-03-29T01:38:58.916Z,77273.25
2023-03-29T01:40:13.795Z,77291.34
2023-03-29T01:41:23.974Z,77297.38
2023-03-29T01:42:45.100Z,77299.41
2023-03-29T01:44:23.693Z,77301.41
2023-03-29T01:45:27.277Z,77289.34
2023-03-29T01:46:50.115Z,77291.34
2023-03-29T01:48:36.679Z,77299.41
2023-03-29T01:49:59.538Z,77301.41
2023-03-29T01:51:31.811Z,77291.34
2023-03-29T01:52:52.485Z,77285.31
2023-03-29T01:54:04.792Z,77275.28
2023-03-29T01:55:16.688Z,77259.19
2023-03-29T01:56:23.367Z,77249.13
2023-03-29T01:57:36.364Z,77249.13
2023-03-29T01:58:51.751Z,77231.03
2023-03-29T02:00:05.565Z,77222.97
2023-03-29T02:01:20.665Z,77218.97
2023-03-29T02:02:38.085Z,77206.91
2023-03-29T02:03:54.179Z,77206.91
2023-03-29T02:05:09.805Z,77204.88
2023-03-29T02:06:25.887Z,77198.84
2023-03-29T02:07:41.547Z,77204.88
2023-03-29T02:08:57.030Z,77190.81
2023-03-29T02:10:25.183Z,77170.69
2023-03-29T02:13:33.914Z,77158.63
2023-03-29T02:16:51.034Z,77142.53
2023-03-29T02:17:58.102Z,77142.53
2023-03-29T02:19:00.513Z,77142.53
2023-03-29T02:20:17.911Z,77144.56
2023-03-29T02:21:28.347Z,77144.56
2023-03-29T02:22:38.151Z,77140.53
2023-03-29T02:23:45.663Z,77142.53
2023-03-29T02:26:20.037Z,77130.47
2023-03-29T02:27:27.161Z,77136.50
2023-03-29T02:28:32.118Z,77134.50
2023-03-29T02:29:35.204Z,77132.50
2023-03-29T02:30:50.470Z,77134.50
2023-03-29T02:32:00.864Z,77138.53
2023-03-29T02:33:22.285Z,77134.50
2023-03-29T02:34:37.638Z,77138.53
2023-03-29T02:35:53.276Z,77134.50
2023-03-29T02:37:00.343Z,77134.50
2023-03-29T02:38:09.112Z,77128.47
2023-03-29T02:39:16.008Z,77128.47
2023-03-29T02:40:18.921Z,77130.47
2023-03-29T02:41:23.871Z,77126.47
2023-03-29T02:42:27.830Z,77128.47
2023-03-29T02:43:31.305Z,77122.44
2023-03-29T02:44:38.165Z,77124.44
2023-03-29T02:45:42.382Z,77120.41
2023-03-29T02:46:46.433Z,77126.47
2023-03-29T02:47:55.060Z,77110.38
2023-03-29T02:48:58.328Z,77114.38
2023-03-29T02:50:00.948Z,77102.31
2023-03-29T02:51:11.155Z,77096.28
2023-03-29T02:52:19.189Z,77092.28
2023-03-29T02:53:27.297Z,77088.25
2023-03-29T02:54:31.739Z,77088.25
2023-03-29T02:55:37.042Z,77088.25
2023-03-29T02:56:46.715Z,77098.31
2023-03-29T02:57:48.420Z,77096.28
2023-03-29T02:58:50.038Z,77100.31
2023-03-29T02:59:52.834Z,77092.28
2023-03-29T03:00:57.130Z,77092.28
2023-03-29T03:01:59.718Z,77086.22
2023-03-29T03:03:02.994Z,77092.28
2023-03-29T03:04:06.445Z,77092.28
2023-03-29T03:05:09.717Z,77090.25
2023-03-29T03:06:12.242Z,77094.28
2023-03-29T03:07:14.035Z,77090.25
2023-03-29T03:08:15.639Z,77092.28
2023-03-29T03:09:17.761Z,77094.28
2023-03-29T03:10:19.357Z,77090.25
2023-03-29T03:11:21.324Z,77098.31
2023-03-29T03:12:23.244Z,77096.28
2023-03-29T03:13:26.296Z,77094.28
2023-03-29T03:14:29.518Z,77098.31
2023-03-29T03:15:35.840Z,77092.28
2023-03-29T03:16:39.992Z,77094.28
2023-03-29T03:17:42.440Z,77098.31
2023-03-29T03:18:46.186Z,77094.28
2023-03-29T03:19:48.269Z,77088.25
2023-03-29T03:21:02.217Z,77094.28
2023-03-29T03:22:06.266Z,77088.25
2023-03-29T03:23:11.246Z,77090.25
2023-03-29T03:24:13.625Z,77096.28
2023-03-29T03:25:17.042Z,77106.34
2023-03-29T03:26:20.129Z,77106.34
2023-03-29T03:27:23.179Z,77098.31
2023-03-29T03:28:27.448Z,77098.31
2023-03-29T03:29:33.410Z,77102.31
2023-03-29T03:30:36.592Z,77104.34
2023-03-29T03:31:41.925Z,77102.31
2023-03-29T03:32:44.939Z,77096.28
2023-03-29T03:33:48.433Z,77100.31
2023-03-29T03:34:50.558Z,77112.38
2023-03-29T03:35:52.667Z,77110.38
2023-03-29T03:36:56.127Z,77102.31
2023-03-29T03:37:57.938Z,77102.31
2023-03-29T03:38:59.980Z,77094.28
2023-03-29T03:40:01.967Z,77100.31
2023-03-29T03:41:04.370Z,77094.28
2023-03-29T03:42:08.431Z,77094.28
2023-03-29T03:43:10.673Z,77098.31
2023-03-29T03:44:13.847Z,77096.28
2023-03-29T03:45:17.027Z,77090.25
2023-03-29T03:46:19.472Z,77100.31
2023-03-29T03:47:21.392Z,77098.31
2023-03-29T03:48:23.884Z,77112.38
2023-03-29T03:49:25.850Z,77108.34
2023-03-29T03:50:28.169Z,77116.41
2023-03-29T03:51:32.284Z,77112.38
2023-03-29T03:52:33.988Z,77116.41
2023-03-29T03:53:36.050Z,77118.41
2023-03-29T03:54:38.439Z,77112.38
2023-03-29T03:55:40.251Z,77118.41
2023-03-29T03:56:42.425Z,77116.41
2023-03-29T03:57:44.801Z,77114.38
2023-03-29T03:58:47.842Z,77120.41
2023-03-29T03:59:49.772Z,77124.44
2023-03-29T04:00:51.962Z,77128.47
2023-03-29T04:01:53.633Z,77150.59
2023-03-29T04:02:56.319Z,77132.50
2023-03-29T04:03:59.395Z,77126.47
2023-03-29T04:05:03.732Z,77136.50
2023-03-29T04:06:05.740Z,77138.53
2023-03-29T04:07:08.208Z,77140.53
2023-03-29T04:08:10.940Z,77144.56
2023-03-29T04:09:13.354Z,77148.56
2023-03-29T04:10:16.120Z,77150.59
2023-03-29T04:11:17.943Z,77154.59
2023-03-29T04:12:19.745Z,77156.63
2023-03-29T04:13:22.541Z,77154.59
2023-03-29T04:14:24.270Z,77152.59
2023-03-29T04:15:26.695Z,77148.56
2023-03-29T04:16:30.080Z,77150.59
2023-03-29T04:17:32.210Z,77142.53
2023-03-29T04:18:36.474Z,77154.59
2023-03-29T04:19:39.402Z,77156.63
2023-03-29T04:20:41.156Z,77164.66
2023-03-29T04:21:43.365Z,77154.59
2023-03-29T04:22:45.689Z,77166.69
2023-03-29T04:23:48.090Z,77166.69
2023-03-29T04:24:51.710Z,77164.66
2023-03-29T04:25:56.819Z,77178.75
2023-03-29T04:26:58.676Z,77182.75
2023-03-29T04:28:01.745Z,77180.75
2023-03-29T04:29:04.808Z,77192.81
2023-03-29T04:30:08.167Z,77184.78
2023-03-29T04:31:14.125Z,77192.81
2023-03-29T04:32:15.773Z,77198.84
2023-03-29T04:33:17.625Z,77198.84
2023-03-29T04:34:19.711Z,77202.88
2023-03-29T04:35:22.454Z,77216.94
2023-03-29T04:36:24.946Z,77212.94
2023-03-29T04:37:29.953Z,77208.91
2023-03-29T04:38:37.093Z,77220.97
2023-03-29T04:39:39.176Z,77208.91
2023-03-29T04:40:40.961Z,77214.94
2023-03-29T04:41:42.837Z,77214.94
2023-03-29T04:42:47.023Z,77214.94
2023-03-29T04:43:48.909Z,77222.97
2023-03-29T04:44:53.235Z,77218.97
2023-03-29T04:45:55.735Z,77216.94
2023-03-29T04:46:58.663Z,77222.97
2023-03-29T04:48:01.211Z,77227.00
2023-03-29T04:49:03.975Z,77218.97
2023-03-29T04:50:08.642Z,77222.97
2023-03-29T04:51:10.501Z,77216.94
2023-03-29T04:52:12.423Z,77222.97
2023-03-29T04:53:14.212Z,77214.94
2023-03-29T04:54:15.936Z,77212.94
2023-03-29T04:55:17.852Z,77218.97
2023-03-29T04:56:21.737Z,77214.94
2023-03-29T04:57:23.450Z,77225.00
2023-03-29T04:58:32.280Z,77218.97
2023-03-29T04:59:35.093Z,77222.97
2023-03-29T05:00:38.104Z,77220.97
2023-03-29T05:01:40.504Z,77220.97
2023-03-29T05:02:44.779Z,77220.97
2023-03-29T05:03:46.760Z,77218.97
2023-03-29T05:04:48.573Z,77233.03
2023-03-29T05:05:51.056Z,77214.94
2023-03-29T05:06:54.058Z,77202.88
2023-03-29T05:07:56.053Z,77206.91
2023-03-29T05:08:58.442Z,77202.88
2023-03-29T05:10:00.275Z,77200.84
2023-03-29T05:11:02.192Z,77202.88
2023-03-29T05:12:06.076Z,77204.88
2023-03-29T05:13:10.075Z,77214.94
2023-03-29T05:14:11.824Z,77216.94
2023-03-29T05:15:13.463Z,77214.94
2023-03-29T05:16:16.079Z,77198.84
2023-03-29T05:17:18.032Z,77198.84
2023-03-29T05:18:19.860Z,77196.84
2023-03-29T05:19:24.485Z,77200.84
2023-03-29T05:20:28.501Z,77194.81
2023-03-29T05:21:31.629Z,77212.94
2023-03-29T05:22:33.601Z,77198.84
2023-03-29T05:23:36.173Z,77198.84
2023-03-29T05:24:38.052Z,77202.88
2023-03-29T05:25:40.574Z,77200.84
2023-03-29T05:26:42.543Z,77202.88
2023-03-29T05:27:45.926Z,77204.88
2023-03-29T05:28:51.058Z,77194.81
2023-03-29T05:29:53.841Z,77184.78
2023-03-29T05:31:01.553Z,77184.78
2023-03-29T05:32:03.492Z,77178.75
2023-03-29T05:33:05.899Z,77182.75
2023-03-29T05:34:07.753Z,77178.75
2023-03-29T05:35:11.468Z,77178.75
2023-03-29T05:36:15.996Z,77166.69
2023-03-29T05:37:18.030Z,77160.66
2023-03-29T05:38:21.496Z,77154.59
2023-03-29T05:39:23.791Z,77158.63
2023-03-29T05:40:27.238Z,77150.59
2023-03-29T05:41:29.422Z,77144.56
2023-03-29T05:42:31.330Z,77146.56
2023-03-29T05:43:33.993Z,77154.59
2023-03-29T05:44:35.900Z,77174.72
2023-03-29T05:45:37.651Z,77158.63
2023-03-29T05:46:39.370Z,77148.56
2023-03-29T05:47:41.948Z,77146.56
2023-03-29T05:48:43.800Z,77140.53
2023-03-29T05:49:46.809Z,77138.53
2023-03-29T05:50:54.015Z,77136.50
2023-03-29T05:51:57.121Z,77140.53
2023-03-29T05:53:00.509Z,77142.53
2023-03-29T05:54:02.187Z,77130.47
2023-03-29T05:55:05.167Z,77118.41
2023-03-29T05:56:12.124Z,77112.38
2023-03-29T05:57:16.511Z,77122.44
2023-03-29T05:58:19.385Z,77114.38
2023-03-29T05:59:23.935Z,77110.38
2023-03-29T06:00:25.902Z,77110.38
2023-03-29T06:01:28.637Z,77106.34
2023-03-29T06:02:30.323Z,77104.34
2023-03-29T06:03:32.502Z,77102.31
2023-03-29T06:04:34.519Z,77106.34
2023-03-29T06:05:37.683Z,77100.31
2023-03-29T06:06:43.072Z,77098.31
2023-03-29T06:07:45.395Z,77098.31
2023-03-29T06:08:47.855Z,77096.28
2023-03-29T06:09:51.236Z,77106.34
2023-03-29T06:11:05.801Z,77090.25
2023-03-29T06:12:08.436Z,77086.22
2023-03-29T06:13:11.192Z,77100.31
2023-03-29T06:14:14.338Z,77094.28
2023-03-29T06:15:18.088Z,77094.28
2023-03-29T06:16:20.235Z,77090.25
2023-03-29T06:17:22.405Z,77082.22
2023-03-29T06:18:24.903Z,77076.19
2023-03-29T06:19:26.638Z,77066.13
2023-03-29T06:20:32.495Z,77062.09
2023-03-29T06:21:34.680Z,77064.13
2023-03-29T06:22:39.940Z,77058.09
2023-03-29T06:23:42.189Z,77056.06
2023-03-29T06:24:44.872Z,77046.00
2023-03-29T06:25:48.805Z,77050.03
2023-03-29T06:26:52.340Z,77046.00
2023-03-29T06:27:54.318Z,77042.00
2023-03-29T06:28:56.529Z,77042.00
2023-03-29T06:29:58.596Z,77039.97
2023-03-29T06:31:05.114Z,77037.97
2023-03-29T06:32:08.827Z,77025.91
2023-03-29T06:33:10.859Z,77029.94
2023-03-29T06:34:14.249Z,77019.88
2023-03-29T06:35:16.610Z,77013.84
2023-03-29T06:36:18.508Z,76999.75
2023-03-29T06:37:21.945Z,77001.78
2023-03-29T06:38:26.859Z,76987.69
2023-03-29T06:39:28.919Z,76969.59
2023-03-29T06:40:31.771Z,76957.53
2023-03-29T06:41:33.830Z,76949.50
2023-03-29T06:42:36.659Z,76949.50
2023-03-29T06:43:40.839Z,76937.44
2023-03-29T06:44:42.560Z,76923.34
2023-03-29T06:45:49.031Z,76913.28
2023-03-29T06:46:51.764Z,76905.25
2023-03-29T06:47:55.582Z,76897.22
2023-03-29T06:48:57.323Z,76899.22
2023-03-29T06:50:00.165Z,76897.22
2023-03-29T06:51:04.890Z,76889.16
2023-03-29T06:52:06.791Z,76879.13
2023-03-29T06:53:08.737Z,76873.09
2023-03-29T06:54:11.707Z,76863.03
2023-03-29T06:55:13.735Z,76861.03
2023-03-29T06:56:16.821Z,76875.09
2023-03-29T06:57:18.649Z,76852.97
2023-03-29T06:58:20.645Z,76859.00
2023-03-29T06:59:23.065Z,76859.00
2023-03-29T07:00:32.346Z,76877.09
2023-03-29T07:01:35.170Z,76879.13
2023-03-29T07:02:37.054Z,76883.13
2023-03-29T07:03:39.528Z,76883.13
2023-03-29T07:04:43.264Z,76881.13
2023-03-29T07:05:45.053Z,76877.09
2023-03-29T07:06:49.542Z,76879.13
2023-03-29T07:08:00.468Z,76881.13
2023-03-29T07:09:06.467Z,76859.00
2023-03-29T07:10:08.891Z,76846.94
2023-03-29T07:11:13.268Z,76834.88
2023-03-29T07:12:15.160Z,76826.84
2023-03-29T07:13:18.146Z,76822.81
2023-03-29T07:14:23.540Z,76820.81
2023-03-29T07:15:26.881Z,76808.75
2023-03-29T07:16:29.433Z,76814.78
2023-03-29T07:17:31.770Z,76808.75
2023-03-29T07:18:33.416Z,76816.78
2023-03-29T07:19:35.526Z,76800.69
2023-03-29T07:20:39.334Z,76792.66
2023-03-29T07:21:42.502Z,76788.63
2023-03-29T07:22:50.762Z,76784.59
2023-03-29T07:23:53.993Z,76778.56
2023-03-29T07:24:56.715Z,76800.69
2023-03-29T07:26:01.610Z,76802.69
2023-03-29T07:27:04.905Z,76800.69
2023-03-29T07:28:07.030Z,76790.63
2023-03-29T07:29:10.093Z,76792.66
2023-03-29T07:30:16.844Z,76798.69
2023-03-29T07:31:18.643Z,76796.66
2023-03-29T07:32:22.927Z,76792.66
2023-03-29T07:33:25.514Z,76796.66
2023-03-29T07:34:30.219Z,76802.69
2023-03-29T07:35:34.343Z,76786.63
2023-03-29T07:36:43.708Z,76768.53
2023-03-29T07:37:48.217Z,76756.47
2023-03-29T07:38:53.994Z,76764.50
2023-03-29T07:39:58.341Z,76756.47
2023-03-29T07:41:05.509Z,76732.31
2023-03-29T07:42:07.578Z,76720.25
2023-03-29T07:43:10.957Z,76696.13
2023-03-29T07:44:12.740Z,76682.06
2023-03-29T07:45:26.698Z,76678.03
2023-03-29T07:46:30.717Z,76663.97
2023-03-29T07:47:37.058Z,76667.97
2023-03-29T07:48:40.296Z,76651.91
2023-03-29T07:49:45.611Z,76635.81
2023-03-29T07:50:47.870Z,76621.75
2023-03-29T07:51:49.933Z,76629.78
2023-03-29T07:52:54.169Z,76613.69
2023-03-29T07:53:55.953Z,76593.59
2023-03-29T07:54:58.165Z,76585.53
2023-03-29T07:56:03.155Z,76571.47
2023-03-29T07:57:06.238Z,76569.47
2023-03-29T07:58:15.478Z,76549.34
2023-03-29T07:59:17.464Z,76525.22
2023-03-29T08:00:22.060Z,76515.16
2023-03-29T08:01:25.563Z,76499.09
2023-03-29T08:02:28.011Z,76487.03
2023-03-29T08:03:30.129Z,76468.94
2023-03-29T08:04:33.131Z,76450.84
2023-03-29T08:05:41.279Z,76438.78
2023-03-29T08:06:43.551Z,76422.69
2023-03-29T08:07:46.693Z,76410.63
2023-03-29T08:08:48.403Z,76404.59
2023-03-29T08:09:51.264Z,76398.56
2023-03-29T08:10:53.702Z,76406.59
2023-03-29T08:11:55.807Z,76406.59
2023-03-29T08:12:58.569Z,76406.59
2023-03-29T08:14:00.335Z,76404.59
2023-03-29T08:15:02.188Z,76402.56
2023-03-29T08:16:05.952Z,76398.56
2023-03-29T08:17:09.173Z,76396.53
2023-03-29T08:18:11.207Z,76392.53
2023-03-29T08:19:14.148Z,76402.56
2023-03-29T08:20:17.728Z,76434.75
2023-03-29T08:21:20.679Z,76448.81
2023-03-29T08:22:23.457Z,76454.84
2023-03-29T08:23:25.389Z,76454.84
2023-03-29T08:24:27.439Z,76438.78
2023-03-29T08:25:29.597Z,76424.69
2023-03-29T08:26:33.136Z,76418.66
2023-03-29T08:27:35.542Z,76396.53
2023-03-29T08:28:38.173Z,76398.56
2023-03-29T08:29:39.812Z,76392.53
2023-03-29T08:30:42.161Z,76372.41
2023-03-29T08:31:44.169Z,76348.28
2023-03-29T08:32:49.327Z,76332.22
2023-03-29T08:33:53.514Z,76312.09
2023-03-29T08:34:55.596Z,76300.03
2023-03-29T08:35:57.873Z,76302.06
2023-03-29T08:37:00.054Z,76289.97
2023-03-29T08:38:02.671Z,76281.94
2023-03-29T08:39:06.696Z,76322.16
2023-03-29T08:40:15.264Z,76334.22
2023-03-29T08:41:34.878Z,76336.22
2023-03-29T08:42:57.843Z,76330.19
2023-03-29T08:44:33.852Z,76358.34
2023-03-29T08:46:02.006Z,76358.34
2023-03-29T08:47:20.710Z,76352.31
2023-03-29T08:48:36.725Z,76372.41
2023-03-29T08:49:42.033Z,76382.47
2023-03-29T08:50:48.673Z,76366.38
2023-03-29T08:51:57.039Z,76346.28
2023-03-29T08:53:10.240Z,76326.19
2023-03-29T08:54:21.002Z,76332.22
2023-03-29T08:55:35.993Z,76298.03
2023-03-29T08:56:41.300Z,76245.75
2023-03-29T08:57:46.655Z,76213.59
2023-03-29T08:58:51.965Z,76199.50
2023-03-29T08:59:57.247Z,76167.34
2023-03-29T09:01:01.602Z,76137.19
2023-03-29T09:02:10.174Z,76127.13
2023-03-29T09:03:22.615Z,76072.84
2023-03-29T09:04:30.713Z,76026.63
2023-03-29T09:05:43.762Z,75996.47
2023-03-29T09:06:45.758Z,75962.28
2023-03-29T09:07:47.676Z,75936.16
2023-03-29T09:08:52.845Z,76000.47
2023-03-29T09:09:54.606Z,76092.97
2023-03-29T09:11:08.171Z,76117.09
2023-03-29T09:12:36.684Z,76133.16
2023-03-29T09:14:22.077Z,76121.09
2023-03-29T09:15:54.203Z,76135.19
2023-03-29T09:17:33.492Z,76109.03
2023-03-29T09:18:53.502Z,76119.09
2023-03-29T09:20:24.805Z,76090.94
2023-03-29T09:21:36.779Z,76032.66
2023-03-29T09:22:57.013Z,75986.41
2023-03-29T09:24:19.553Z,75924.09
2023-03-29T09:25:27.695Z,75871.81
2023-03-29T09:26:41.884Z,75805.47
2023-03-29T09:28:05.511Z,75755.22
2023-03-29T09:29:33.812Z,75755.22
2023-03-29T09:30:42.276Z,75686.88
2023-03-29T09:31:44.839Z,75662.75
2023-03-29T09:33:17.332Z,75582.34
2023-03-29T09:34:42.218Z,75578.31
2023-03-29T09:36:05.185Z,75590.38
2023-03-29T09:37:25.930Z,75572.28
2023-03-29T09:38:30.612Z,75536.09
2023-03-29T09:39:32.345Z,75453.69
2023-03-29T09:40:47.691Z,75389.38
2023-03-29T09:41:54.889Z,75369.25
2023-03-29T09:43:01.466Z,75399.41
2023-03-29T09:44:20.572Z,75323.03
2023-03-29T09:45:31.360Z,75288.88
2023-03-29T09:46:56.220Z,75250.66
2023-03-29T09:48:06.692Z,75266.75
2023-03-29T09:49:16.731Z,75270.78
2023-03-29T09:50:30.730Z,75286.84
2023-03-29T09:51:34.467Z,75399.41
2023-03-29T09:52:36.369Z,75431.56
2023-03-29T09:53:38.424Z,75417.50
2023-03-29T09:54:40.910Z,75421.53
2023-03-29T09:55:50.913Z,75431.56
2023-03-29T09:56:53.727Z,75501.94
2023-03-29T09:58:00.965Z,75491.88
2023-03-29T09:59:02.953Z,75467.75
2023-03-29T10:00:07.116Z,75453.69
2023-03-29T10:01:09.360Z,75461.72
2023-03-29T10:02:15.024Z,75407.47
2023-03-29T10:03:31.456Z,75441.63
2023-03-29T10:04:33.651Z,75395.41
2023-03-29T10:05:40.127Z,75439.63
2023-03-29T10:06:52.178Z,75497.91
2023-03-29T10:07:59.664Z,75493.88
2023-03-29T10:09:02.326Z,75514.00
2023-03-29T10:10:10.673Z,75528.06
2023-03-29T10:11:20.542Z,75570.28
2023-03-29T10:12:23.172Z,75658.72
2023-03-29T10:13:31.125Z,75658.72
2023-03-29T10:14:38.283Z,75636.63
2023-03-29T10:15:40.167Z,75602.44
2023-03-29T10:16:46.516Z,75570.28
2023-03-29T10:17:49.834Z,75558.22
2023-03-29T10:18:53.602Z,75526.06
2023-03-29T10:20:19.137Z,75485.84
2023-03-29T10:21:22.440Z,75505.94
2023-03-29T10:22:27.722Z,75463.75
2023-03-29T10:23:34.073Z,75405.44
2023-03-29T10:24:35.738Z,75403.44
2023-03-29T10:25:42.990Z,75475.81
2023-03-29T10:26:47.398Z,75421.53
2023-03-29T10:27:51.376Z,75403.44
2023-03-29T10:28:57.246Z,75411.47
2023-03-29T10:30:03.581Z,75393.38
2023-03-29T10:31:08.556Z,75333.09
2023-03-29T10:32:18.652Z,75220.53
2023-03-29T10:33:24.267Z,75069.78
2023-03-29T10:34:28.360Z,74949.19
2023-03-29T10:35:39.985Z,74890.91
2023-03-29T10:36:57.688Z,74830.59
2023-03-29T10:38:03.677Z,74856.72
2023-03-29T10:39:06.505Z,74886.88
2023-03-29T10:40:35.798Z,74999.44
2023-03-29T10:41:38.894Z,75132.09
2023-03-29T10:42:47.209Z,75264.75
2023-03-29T10:43:51.990Z,75429.56
2023-03-29T10:44:56.822Z,75449.66
2023-03-29T10:46:11.167Z,75445.66
2023-03-29T10:47:19.659Z,75469.78
2023-03-29T10:48:29.400Z,75518.00
2023-03-29T10:49:31.464Z,75552.19
2023-03-29T10:50:35.748Z,75592.38
2023-03-29T10:51:38.690Z,75698.94
2023-03-29T10:52:42.001Z,75807.47
2023-03-29T10:53:43.841Z,75847.69
2023-03-29T10:54:46.693Z,75829.59
2023-03-29T10:56:25.687Z,75805.47
2023-03-29T10:57:52.801Z,75793.41
2023-03-29T10:59:32.102Z,75749.19
2023-03-29T11:00:58.842Z,75757.22
2023-03-29T11:02:15.634Z,75763.25
2023-03-29T11:03:43.763Z,75763.25
2023-03-29T11:04:50.890Z,75763.25
2023-03-29T11:06:17.531Z,75747.19
2023-03-29T11:07:53.491Z,75731.09
2023-03-29T11:09:22.775Z,75743.16
2023-03-29T11:10:54.263Z,75751.19
2023-03-29T11:12:16.099Z,75759.25
2023-03-29T11:13:42.918Z,75759.25
2023-03-29T11:15:29.532Z,75696.91
2023-03-29T11:16:58.156Z,75638.63
2023-03-29T11:18:16.445Z,75626.56
2023-03-29T11:19:41.722Z,75674.81
2023-03-29T11:20:53.996Z,75668.78
2023-03-29T11:22:07.062Z,75721.03
2023-03-29T11:23:43.250Z,75733.09
2023-03-29T11:25:11.186Z,75747.19
2023-03-29T11:26:37.833Z,75759.25
2023-03-29T11:28:06.567Z,75753.22
2023-03-29T11:29:28.438Z,75771.31
2023-03-29T11:30:37.791Z,75803.47
2023-03-29T11:32:12.247Z,75783.38
2023-03-29T11:33:42.892Z,75829.59
2023-03-29T11:34:51.496Z,75799.44
2023-03-29T11:36:11.576Z,75759.25
2023-03-29T11:37:24.622Z,75711.00
2023-03-29T11:38:43.280Z,75690.88
2023-03-29T11:40:06.013Z,75654.72
2023-03-29T11:41:31.882Z,75592.38
2023-03-29T11:42:36.300Z,75570.28
2023-03-29T11:43:57.086Z,75664.75
2023-03-29T11:45:01.895Z,75666.78
2023-03-29T11:46:18.999Z,75682.84
2023-03-29T11:47:24.506Z,75654.72
2023-03-29T11:48:36.184Z,75644.66
2023-03-29T11:49:44.144Z,75654.72
2023-03-29T11:50:57.899Z,75646.66
2023-03-29T11:52:13.872Z,75618.53
2023-03-29T11:53:38.812Z,75682.84
2023-03-29T11:54:49.393Z,75606.47
2023-03-29T11:55:54.032Z,75678.81
2023-03-29T11:56:59.920Z,75674.81
2023-03-29T11:58:12.895Z,75590.38
2023-03-29T11:59:23.482Z,75628.56
2023-03-29T12:00:31.117Z,75578.31
2023-03-29T12:01:45.343Z,75590.38
2023-03-29T12:03:22.470Z,75516.00
2023-03-29T12:04:31.680Z,75489.88
2023-03-29T12:05:42.962Z,75453.69
2023-03-29T12:06:55.152Z,75445.66
2023-03-29T12:08:03.808Z,75499.91
2023-03-29T12:09:20.498Z,75550.19
2023-03-29T12:10:27.500Z,75612.50
2023-03-29T12:11:36.857Z,75700.94
2023-03-29T12:12:39.893Z,75737.13
2023-03-29T12:13:53.056Z,75743.16
2023-03-29T12:15:11.032Z,75747.19
2023-03-29T12:16:33.506Z,75759.25
2023-03-29T12:17:46.505Z,75747.19
2023-03-29T12:18:56.592Z,75747.19
2023-03-29T12:20:11.857Z,75737.13
2023-03-29T12:21:18.908Z,75670.78
2023-03-29T12:22:23.473Z,75610.47
2023-03-29T12:23:31.480Z,75546.16
2023-03-29T12:24:38.687Z,75522.03
2023-03-29T12:26:06.980Z,75536.09
2023-03-29T12:27:31.919Z,75542.13
2023-03-29T12:29:11.505Z,75622.53
2023-03-29T12:30:48.473Z,75702.94
2023-03-29T12:32:12.827Z,75715.00
2023-03-29T12:33:15.905Z,75711.00
2023-03-29T12:34:27.868Z,75690.88
2023-03-29T12:35:36.240Z,75702.94
2023-03-29T12:37:16.520Z,75702.94
2023-03-29T12:38:24.095Z,75737.13
2023-03-29T12:39:28.619Z,75761.25
2023-03-29T12:40:41.918Z,75747.19
2023-03-29T12:41:49.354Z,75733.09
2023-03-29T12:43:01.469Z,75719.03
2023-03-29T12:44:04.599Z,75708.97
2023-03-29T12:45:15.429Z,75723.06
2023-03-29T12:46:24.882Z,75715.00
2023-03-29T12:47:32.608Z,75704.97
2023-03-29T12:48:40.308Z,75706.97
2023-03-29T12:49:48.068Z,75721.03
2023-03-29T12:50:53.956Z,75713.00
2023-03-29T12:51:59.148Z,75708.97
2023-03-29T12:53:12.943Z,75755.22
2023-03-29T12:54:19.164Z,75749.19
2023-03-29T12:55:48.157Z,75711.00
2023-03-29T12:56:53.277Z,75700.94
2023-03-29T12:58:23.295Z,75694.91
2023-03-29T12:59:40.000Z,75694.91
2023-03-29T13:00:45.099Z,75668.78
2023-03-29T13:02:09.327Z,75650.69
2023-03-29T13:03:42.838Z,75610.47
2023-03-29T13:04:54.636Z,75580.31
2023-03-29T13:06:04.243Z,75554.19
2023-03-29T13:07:15.639Z,75540.13
2023-03-29T13:08:27.030Z,75552.19
2023-03-29T13:09:51.218Z,75526.06
2023-03-29T13:10:55.559Z,75501.94
2023-03-29T13:12:04.585Z,75534.09
2023-03-29T13:13:26.895Z,75530.06
2023-03-29T13:14:35.728Z,75505.94
2023-03-29T13:15:37.844Z,75497.91
2023-03-29T13:16:45.145Z,75497.91
2023-03-29T13:18:07.543Z,75493.88
2023-03-29T13:19:38.666Z,75485.84
2023-03-29T13:20:46.360Z,75489.88
2023-03-29T13:22:11.667Z,75505.94
2023-03-29T13:23:47.104Z,75546.16
2023-03-29T13:24:54.945Z,75548.16
2023-03-29T13:26:17.835Z,75550.19
2023-03-29T13:27:29.991Z,75562.25
2023-03-29T13:28:34.648Z,75554.19